createdAt,value
2022-11-05T00:03:01.972Z,98.58
2022-11-05T00:05:03.489Z,98.58
2022-11-05T00:07:04.697Z,98.58
2022-11-05T00:09:06.081Z,98.56
2022-11-05T00:11:07.618Z,98.58
2022-11-05T00:13:09.426Z,98.57
2022-11-05T00:15:10.451Z,98.59
2022-11-05T00:17:12.238Z,98.57
2022-11-05T00:19:13.226Z,98.59
2022-11-05T00:21:14.897Z,98.6
2022-11-05T00:23:16.263Z,98.6
2022-11-05T00:25:17.246Z,98.59
2022-11-05T00:27:18.904Z,98.53
2022-11-05T00:29:20.271Z,98.58
2022-11-05T00:31:22.133Z,98.58
2022-11-05T00:35:25.525Z,98.58
2022-11-05T00:37:26.711Z,98.57
2022-11-05T00:39:27.854Z,98.58
2022-11-05T00:41:28.943Z,98.57
2022-11-05T00:43:30.442Z,98.58
2022-11-05T00:47:32.762Z,98.58
2022-11-05T00:51:34.777Z,98.56
2022-11-05T00:53:36.576Z,98.56
2022-11-05T00:55:38.040Z,98.56
2022-11-05T00:57:39.527Z,98.56
2022-11-05T01:01:42.108Z,98.54
2022-11-05T01:03:47.476Z,98.51
2022-11-05T01:05:44.577Z,98.52
2022-11-05T01:07:46.437Z,98.53
2022-11-05T01:09:48.040Z,98.51
2022-11-05T01:11:49.858Z,98.52
2022-11-05T01:13:51.555Z,98.5
2022-11-05T01:15:52.643Z,98.49
2022-11-05T01:17:54.190Z,98.5
2022-11-05T01:19:55.609Z,98.5
2022-11-05T01:21:57.095Z,98.49
2022-11-05T01:23:58.501Z,98.47
2022-11-05T01:26:00.296Z,98.45
2022-11-05T01:28:02.015Z,98.48
2022-11-05T01:30:03.790Z,98.43
2022-11-05T01:32:05.385Z,98.44
2022-11-05T01:34:06.572Z,98.43
2022-11-05T01:36:08.153Z,98.4
2022-11-05T01:40:10.977Z,98.39
2022-11-05T01:42:12.008Z,98.38
2022-11-05T01:44:13.161Z,98.39
2022-11-05T01:46:15.093Z,98.38
2022-11-05T01:48:16.620Z,98.38
2022-11-05T01:50:18.201Z,98.35
2022-11-05T01:52:19.806Z,98.36
2022-11-05T01:54:21.606Z,98.38
2022-11-05T01:56:23.272Z,98.34
2022-11-05T01:58:24.209Z,98.35
2022-11-05T01:59:08.074Z,98.33
2022-11-05T02:01:09.370Z,98.35
2022-11-05T02:03:10.927Z,98.35
2022-11-05T02:05:12.212Z,98.34
2022-11-05T02:07:13.842Z,98.33
2022-11-05T02:09:15.019Z,98.32
2022-11-05T02:11:16.622Z,98.31
2022-11-05T02:13:17.895Z,98.29
2022-11-05T02:15:19.296Z,98.29
2022-11-05T02:17:20.671Z,98.27
2022-11-05T02:21:23.696Z,98.24
2022-11-05T02:23:24.786Z,98.23
2022-11-05T02:25:25.702Z,98.26
2022-11-05T02:27:27.343Z,98.24
2022-11-05T02:29:28.392Z,98.22
2022-11-05T02:31:30.292Z,98.2
2022-11-05T02:33:32.094Z,98.22
2022-11-05T02:35:33.775Z,98.22
2022-11-05T02:37:35.062Z,98.24
2022-11-05T02:39:36.115Z,98.23
2022-11-05T02:41:37.830Z,98.24
2022-11-05T02:43:38.935Z,98.26
2022-11-05T02:45:40.273Z,98.24
2022-11-05T02:47:41.412Z,98.23
2022-11-05T02:49:42.893Z,98.24
2022-11-05T02:51:43.923Z,98.24
2022-11-05T02:53:45.040Z,98.22
2022-11-05T02:55:46.780Z,98.27
2022-11-05T02:57:48.541Z,98.28
2022-11-05T02:59:50.376Z,98.28
2022-11-05T03:01:51.790Z,98.32
2022-11-05T03:03:52.828Z,98.31
2022-11-05T03:05:54.428Z,98.31
2022-11-05T03:09:57.705Z,98.32
2022-11-05T03:11:58.716Z,98.32
2022-11-05T03:14:00.170Z,98.33
2022-11-05T03:16:01.535Z,98.34
2022-11-05T03:20:03.904Z,98.38
2022-11-05T03:22:05.102Z,98.41
2022-11-05T03:24:06.445Z,98.41
2022-11-05T03:26:08.048Z,98.44
2022-11-05T03:28:09.095Z,98.44
2022-11-05T03:30:10.892Z,98.46
2022-11-05T03:32:12.539Z,98.46
2022-11-05T03:34:13.760Z,98.47
2022-11-05T03:36:14.954Z,98.48
2022-11-05T03:38:16.401Z,98.53
2022-11-05T03:40:17.941Z,98.52
2022-11-05T03:42:18.913Z,98.5
2022-11-05T03:44:20.487Z,98.51
2022-11-05T03:46:21.723Z,98.48
2022-11-05T03:48:23.064Z,98.48
2022-11-05T03:50:24.833Z,98.5
2022-11-05T03:52:26.505Z,98.48
2022-11-05T03:54:27.553Z,98.46
2022-11-05T03:56:29.317Z,98.48
2022-11-05T03:58:30.342Z,98.48
2022-11-05T04:02:33.521Z,98.49
2022-11-05T04:04:34.717Z,98.49
2022-11-05T04:06:35.752Z,98.49
2022-11-05T04:08:37.542Z,98.5
2022-11-05T04:10:39.140Z,98.51
2022-11-05T04:12:40.873Z,98.51
2022-11-05T04:14:42.214Z,98.5
2022-11-05T04:16:43.373Z,98.49
2022-11-05T04:18:44.719Z,98.48
2022-11-05T04:20:46.502Z,98.5
2022-11-05T04:22:48.405Z,98.51
2022-11-05T04:24:49.993Z,98.52
2022-11-05T04:26:51.627Z,98.53
2022-11-05T04:28:53.296Z,98.54
2022-11-05T04:30:54.629Z,98.51
2022-11-05T04:32:55.722Z,98.53
2022-11-05T04:34:57.018Z,98.54
2022-11-05T04:36:58.071Z,98.56
2022-11-05T04:38:59.629Z,98.58
2022-11-05T04:41:01.574Z,98.57
2022-11-05T04:45:04.488Z,98.58
2022-11-05T04:47:05.923Z,98.57
2022-11-05T04:49:07.199Z,98.6
2022-11-05T04:51:08.745Z,98.58
2022-11-05T04:53:10.376Z,98.59
2022-11-05T04:55:11.691Z,98.59
2022-11-05T04:57:12.758Z,98.59
2022-11-05T04:59:14.112Z,98.57
2022-11-05T05:01:15.180Z,98.58
2022-11-05T05:03:16.797Z,98.59
2022-11-05T05:05:17.902Z,98.6
2022-11-05T05:07:19.478Z,98.61
2022-11-05T05:09:21.005Z,98.64
2022-11-05T05:13:23.983Z,98.62
2022-11-05T05:17:26.569Z,98.62
2022-11-05T05:19:28.333Z,98.65
2022-11-05T05:21:29.374Z,98.66
2022-11-05T05:23:31.218Z,98.64
2022-11-05T05:27:33.978Z,98.67
2022-11-05T05:29:35.113Z,98.65
2022-11-05T05:33:37.860Z,98.63
2022-11-05T05:35:38.847Z,98.63
2022-11-05T05:37:40.465Z,98.63
2022-11-05T05:39:42.293Z,98.65
2022-11-05T05:41:43.292Z,98.62
2022-11-05T05:43:44.513Z,98.65
2022-11-05T05:45:45.611Z,98.65
2022-11-05T05:47:46.513Z,98.65
2022-11-05T05:49:47.746Z,98.66
2022-11-05T05:51:49.030Z,98.68
2022-11-05T05:53:50.226Z,98.68
2022-11-05T05:55:51.191Z,98.68
2022-11-05T05:57:52.356Z,98.69
2022-11-05T05:59:54.083Z,98.7
2022-11-05T06:01:55.366Z,98.71
2022-11-05T06:03:56.492Z,98.7
2022-11-05T06:05:58.081Z,98.7
2022-11-05T06:07:59.551Z,98.68
2022-11-05T06:10:00.595Z,98.71
2022-11-05T06:12:01.979Z,98.69
2022-11-05T06:14:03.178Z,98.71
2022-11-05T06:16:04.509Z,98.71
2022-11-05T06:18:05.945Z,98.76
2022-11-05T06:20:06.962Z,98.75
2022-11-05T06:22:08.226Z,98.75
2022-11-05T06:26:10.231Z,98.75
2022-11-05T06:28:11.928Z,98.74
2022-11-05T06:30:13.414Z,98.76
2022-11-05T06:32:14.981Z,98.77
2022-11-05T06:34:16.060Z,98.75
2022-11-05T06:36:17.256Z,98.77
2022-11-05T06:38:18.454Z,98.76
2022-11-05T06:40:19.737Z,98.81
2022-11-05T06:42:20.827Z,98.81
2022-11-05T06:44:22.099Z,98.79
2022-11-05T06:46:23.420Z,98.82
2022-11-05T06:48:24.497Z,98.81
2022-11-05T06:50:26.180Z,98.8
2022-11-05T06:52:27.823Z,98.8
2022-11-05T06:54:29.694Z,98.81
2022-11-05T06:58:32.424Z,98.81
2022-11-05T07:00:33.621Z,98.8
2022-11-05T07:02:35.390Z,98.79
2022-11-05T07:04:36.882Z,98.8
2022-11-05T07:08:39.785Z,98.85
2022-11-05T07:10:41.548Z,98.82
2022-11-05T07:12:42.545Z,98.81
2022-11-05T07:14:44.042Z,98.8
2022-11-05T07:16:45.821Z,98.8
2022-11-05T07:18:47.496Z,98.8
2022-11-05T07:20:48.755Z,98.79
2022-11-05T07:22:50.348Z,98.77
2022-11-05T07:24:51.482Z,98.77
2022-11-05T07:26:52.873Z,98.84
2022-11-05T07:28:54.180Z,98.83
2022-11-05T07:30:55.856Z,98.75
2022-11-05T07:32:57.639Z,98.77
2022-11-05T07:34:59.407Z,98.76
2022-11-05T07:37:00.978Z,98.75
2022-11-05T07:39:02.039Z,98.76
2022-11-05T07:41:03.312Z,98.71
2022-11-05T07:43:05.239Z,98.73
2022-11-05T07:47:08.312Z,98.71
2022-11-05T07:49:09.493Z,98.7
2022-11-05T07:51:10.825Z,98.68
2022-11-05T07:53:12.486Z,98.65
2022-11-05T07:55:13.084Z,98.66
2022-11-05T07:57:14.350Z,98.64
2022-11-05T07:59:16.179Z,98.61
2022-11-05T08:01:17.732Z,98.59
2022-11-05T08:03:19.263Z,98.6
2022-11-05T08:05:19.929Z,98.57
2022-11-05T08:07:21.379Z,98.53
2022-11-05T08:09:22.695Z,98.5
2022-11-05T08:11:24.124Z,98.46
2022-11-05T08:13:25.252Z,98.41
2022-11-05T08:15:26.714Z,98.33
2022-11-05T08:17:27.689Z,98.3
2022-11-05T08:19:28.745Z,98.29
2022-11-05T08:21:29.919Z,98.25
2022-11-05T08:23:31.233Z,98.17
2022-11-05T08:25:32.271Z,98.09
2022-11-05T08:29:35.568Z,98.13
2022-11-05T08:31:36.780Z,98.03
2022-11-05T08:33:38.609Z,98.02
2022-11-05T08:35:39.962Z,97.96
2022-11-05T08:39:42.454Z,97.81
2022-11-05T08:41:51.650Z,97.82
2022-11-05T08:43:45.530Z,97.85
2022-11-05T08:44:29.347Z,97.69
2022-11-05T08:46:30.315Z,97.68
2022-11-05T08:48:32.240Z,97.67
2022-11-05T08:50:33.605Z,97.65
2022-11-05T08:52:34.601Z,97.58
2022-11-05T08:54:36.491Z,97.54
2022-11-05T08:56:37.993Z,97.5
2022-11-05T08:58:39.609Z,97.33
2022-11-05T09:00:41.381Z,97.27
2022-11-05T09:02:43.051Z,97.32
2022-11-05T09:04:44.304Z,97.24
2022-11-05T09:06:45.993Z,97.24
2022-11-05T09:08:47.529Z,97.19
2022-11-05T09:10:48.631Z,97.18
2022-11-05T09:12:49.957Z,97.17
2022-11-05T09:16:52.585Z,97.28
2022-11-05T09:18:53.722Z,97.27
2022-11-05T09:20:54.987Z,97.33
2022-11-05T09:22:56.147Z,97.34
2022-11-05T09:24:57.990Z,97.33
2022-11-05T09:26:59.379Z,97.28
2022-11-05T09:29:00.613Z,97.3
2022-11-05T09:31:01.679Z,97.3
2022-11-05T09:33:02.802Z,97.33
2022-11-05T09:35:04.513Z,97.27
2022-11-05T09:37:06.084Z,97.34
2022-11-05T09:39:08.014Z,97.34
2022-11-05T09:41:09.872Z,97.38
2022-11-05T09:43:11.743Z,97.45
2022-11-05T09:45:13.396Z,97.5
2022-11-05T09:49:15.707Z,97.54
2022-11-05T09:51:20.921Z,97.49
2022-11-05T09:53:18.614Z,97.53
2022-11-05T09:55:20.210Z,97.36
2022-11-05T09:59:23.013Z,97.45
2022-11-05T10:01:25.004Z,97.21
2022-11-05T10:03:26.085Z,97.29
2022-11-05T10:05:27.994Z,97.33
2022-11-05T10:07:29.669Z,97.22
2022-11-05T10:09:30.779Z,97.04
2022-11-05T10:11:31.721Z,96.89
2022-11-05T10:13:33.153Z,96.92
2022-11-05T10:15:34.363Z,96.62
2022-11-05T10:17:38.966Z,96.32
2022-11-05T10:19:37.029Z,95.93
2022-11-05T10:22:04.678Z,95.78
2022-11-05T10:23:40.175Z,95.34
2022-11-05T10:25:49.905Z,94.38
2022-11-05T10:27:43.635Z,93.61
2022-11-05T10:29:45.196Z,93.47
2022-11-05T10:31:46.958Z,94.14
2022-11-05T10:33:48.161Z,92.09
2022-11-05T10:35:49.525Z,92.84
2022-11-05T10:37:51.382Z,90.81
2022-11-05T10:39:52.379Z,92.84
2022-11-05T10:41:54.106Z,90.86
2022-11-05T10:43:55.977Z,91.39
2022-11-05T10:47:58.262Z,90.9
2022-11-05T10:49:59.525Z,90.87
2022-11-05T10:52:00.608Z,88.65
2022-11-05T10:54:02.412Z,90.58
2022-11-05T10:58:05.558Z,89.85
2022-11-05T11:00:06.402Z,88.7
2022-11-05T11:02:07.882Z,87.1
2022-11-05T11:04:08.910Z,88.09
2022-11-05T11:06:10.397Z,89.59
2022-11-05T11:08:11.912Z,90.07
2022-11-05T11:10:12.803Z,88.59
2022-11-05T11:12:14.543Z,89.41
2022-11-05T11:14:15.972Z,89.52
2022-11-05T11:16:17.193Z,89.73
2022-11-05T11:18:19.012Z,89.5
2022-11-05T11:20:20.861Z,89.59
2022-11-05T11:22:22.254Z,89.8
2022-11-05T11:24:23.489Z,88.25
2022-11-05T11:26:24.509Z,88.82
2022-11-05T11:28:25.626Z,88.78
2022-11-05T11:30:26.816Z,88.39
2022-11-05T11:32:28.432Z,89.65
2022-11-05T11:36:30.643Z,88.28
2022-11-05T11:40:33.299Z,88.03
2022-11-05T11:42:34.219Z,87.96
2022-11-05T11:44:35.809Z,89.64
2022-11-05T11:46:37.689Z,91.31
2022-11-05T11:48:39.450Z,92.47
2022-11-05T11:50:40.663Z,92.66
2022-11-05T11:52:42.394Z,93.01
2022-11-05T11:54:43.289Z,93.19
2022-11-05T11:56:44.458Z,93.63
2022-11-05T11:58:45.786Z,94.46
2022-11-05T12:00:46.975Z,94.48
2022-11-05T12:02:48.562Z,94.98
2022-11-05T12:04:49.690Z,94.83
2022-11-05T12:06:50.972Z,94.79
2022-11-05T12:08:58.316Z,94.93
2022-11-05T12:12:54.353Z,94.81
2022-11-05T12:14:55.740Z,94.92
2022-11-05T12:16:57.090Z,95.24
2022-11-05T12:18:58.466Z,95.23
2022-11-05T12:23:01.964Z,95.57
2022-11-05T12:25:02.977Z,95.72
2022-11-05T12:27:04.277Z,95.76
2022-11-05T12:29:18.206Z,95.7
2022-11-05T12:31:07.430Z,95.46
2022-11-05T12:33:09.445Z,95.22
2022-11-05T12:35:10.671Z,94.15
2022-11-05T12:37:11.787Z,94.02
2022-11-05T12:39:13.211Z,94.2
2022-11-05T12:41:14.778Z,93.36
2022-11-05T12:43:16.520Z,92.96
2022-11-05T12:45:18.078Z,93.81
2022-11-05T12:47:19.764Z,92.29
2022-11-05T12:49:21.405Z,93.67
2022-11-05T12:51:22.443Z,93.9
2022-11-05T12:53:23.683Z,92.08
2022-11-05T12:55:25.113Z,92.95
2022-11-05T12:57:26.643Z,93.58
2022-11-05T12:59:28.221Z,94.29
2022-11-05T13:01:30.060Z,94.05
2022-11-05T13:05:33.399Z,93.67
2022-11-05T13:07:35.002Z,94.17
2022-11-05T13:11:37.725Z,93.1
2022-11-05T13:13:38.658Z,92.87
2022-11-05T13:15:39.781Z,92.49
2022-11-05T13:17:41.499Z,91.81
2022-11-05T13:21:43.712Z,90.93
2022-11-05T13:23:45.238Z,91.09
2022-11-05T13:25:47.017Z,91.65
2022-11-05T13:27:48.726Z,91.63
2022-11-05T13:29:49.998Z,91.99
2022-11-05T13:31:51.060Z,91.75
2022-11-05T13:33:52.155Z,92.43
2022-11-05T13:35:53.991Z,92.38
2022-11-05T13:37:55.214Z,92.97
2022-11-05T13:39:56.480Z,92.72
2022-11-05T13:41:57.923Z,92.36
2022-11-05T13:43:59.346Z,92.67
2022-11-05T13:46:05.510Z,92.7
2022-11-05T13:48:02.951Z,92.66
2022-11-05T13:50:04.619Z,92.68
2022-11-05T13:52:06.435Z,92.78
2022-11-05T13:54:07.452Z,92.54
2022-11-05T13:56:08.436Z,92.89
2022-11-05T13:58:10.160Z,93.07
2022-11-05T14:00:11.714Z,93
2022-11-05T14:04:15.226Z,94.22
2022-11-05T14:06:16.876Z,93.56
2022-11-05T14:08:18.749Z,90.99
2022-11-05T14:10:20.628Z,89.8
2022-11-05T14:12:21.527Z,89.91
2022-11-05T14:14:22.473Z,90.51
2022-11-05T14:16:24.216Z,91.77
2022-11-05T14:18:25.259Z,92.31
2022-11-05T14:20:26.612Z,93.33
2022-11-05T14:22:28.108Z,93.89
2022-11-05T14:24:29.161Z,94.6
2022-11-05T14:26:30.977Z,94.75
2022-11-05T14:28:32.255Z,95.28
2022-11-05T14:30:37.269Z,95.59
2022-11-05T14:32:35.149Z,95.27
2022-11-05T14:34:36.880Z,95.29
2022-11-05T14:36:38.199Z,95.39
2022-11-05T14:38:39.671Z,95.63
2022-11-05T14:40:40.841Z,96
2022-11-05T14:42:42.191Z,96.3
2022-11-05T14:46:45.487Z,95.74
2022-11-05T14:48:47.341Z,95.53
2022-11-05T14:50:49.219Z,95.21
2022-11-05T14:52:50.824Z,95.13
2022-11-05T14:54:52.078Z,95.46
2022-11-05T14:56:56.219Z,96.1
2022-11-05T14:58:55.029Z,96.29
2022-11-05T15:00:56.859Z,96.48
2022-11-05T15:02:58.437Z,96.46
2022-11-05T15:04:59.502Z,96.49
2022-11-05T15:07:00.777Z,96.42
2022-11-05T15:09:02.357Z,96.37
2022-11-05T15:11:03.955Z,96.43
2022-11-05T15:13:05.432Z,96.44
2022-11-05T15:15:06.629Z,96.47
2022-11-05T15:19:10.093Z,96.41
2022-11-05T15:21:11.048Z,96.4
2022-11-05T15:23:12.856Z,96.37
2022-11-05T15:25:13.650Z,96.43
2022-11-05T15:27:14.923Z,96.44
2022-11-05T15:29:15.967Z,96.48
2022-11-05T15:31:17.307Z,96.51
2022-11-05T15:34:02.473Z,96.38
2022-11-05T15:36:03.946Z,96.3
2022-11-05T15:38:05.177Z,96.29
2022-11-05T15:40:06.494Z,96.27
2022-11-05T15:42:08.146Z,96.27
2022-11-05T15:44:09.460Z,96.33
2022-11-05T15:46:10.687Z,96.37
2022-11-05T15:48:12.423Z,96.36
2022-11-05T15:50:14.861Z,96.44
2022-11-05T15:52:15.409Z,96.43
2022-11-05T15:54:29.492Z,96.39
2022-11-05T15:56:18.719Z,96.45
2022-11-05T15:58:20.369Z,96.63
2022-11-05T16:00:21.836Z,96.69
2022-11-05T16:02:23.537Z,96.73
2022-11-05T16:04:25.268Z,96.85
2022-11-05T16:06:26.481Z,96.99
2022-11-05T16:08:27.529Z,97.05
2022-11-05T16:12:30.668Z,97
2022-11-05T16:14:32.215Z,96.91
2022-11-05T16:16:33.503Z,96.93
2022-11-05T16:18:35.344Z,96.94
2022-11-05T16:22:38.418Z,97.05
2022-11-05T16:24:39.930Z,97.13
2022-11-05T16:27:02.090Z,97.25
2022-11-05T16:28:42.963Z,97.34
2022-11-05T16:30:44.558Z,97.33
2022-11-05T16:32:45.762Z,97.38
2022-11-05T16:34:47.155Z,97.32
2022-11-05T16:36:48.261Z,97.29
2022-11-05T16:38:49.339Z,97.29
2022-11-05T16:40:50.599Z,97.44
2022-11-05T16:42:51.674Z,97.53
2022-11-05T16:44:52.842Z,97.53
2022-11-05T16:46:54.510Z,97.51
2022-11-05T16:48:56.375Z,97.59
2022-11-05T16:50:58.003Z,97.54
2022-11-05T16:52:59.362Z,97.58
2022-11-05T16:55:00.443Z,97.75
2022-11-05T16:57:01.562Z,97.92
2022-11-05T17:01:04.674Z,97.47
2022-11-05T17:05:06.906Z,97.31
2022-11-05T17:07:08.840Z,97.32
2022-11-05T17:09:09.823Z,97.27
2022-11-05T17:11:11.697Z,97.11
2022-11-05T17:13:13.310Z,97.25
2022-11-05T17:15:15.250Z,97.35
2022-11-05T17:17:16.575Z,97.45
2022-11-05T17:19:18.469Z,97.53
2022-11-05T17:21:19.706Z,97.5
2022-11-05T17:23:21.214Z,97.36
2022-11-05T17:25:22.273Z,97.38
2022-11-05T17:27:24.074Z,97.38
2022-11-05T17:29:25.243Z,97.4
2022-11-05T17:31:26.461Z,97.5
2022-11-05T17:33:27.493Z,97.5
2022-11-05T17:37:30.409Z,97.57
2022-11-05T17:39:32.162Z,97.59
2022-11-05T17:41:33.807Z,97.56
2022-11-05T17:43:35.029Z,97.65
2022-11-05T17:47:37.295Z,97.78
2022-11-05T17:49:38.952Z,97.81
2022-11-05T17:51:39.960Z,97.87
2022-11-05T17:53:41.273Z,97.83
2022-11-05T17:55:42.334Z,97.57
2022-11-05T17:57:43.988Z,97.54
2022-11-05T17:59:45.488Z,97.57
2022-11-05T18:01:47.267Z,97.59
2022-11-05T18:03:48.431Z,97.69
2022-11-05T18:05:50.204Z,97.7
2022-11-05T18:07:51.251Z,97.74
2022-11-05T18:09:52.341Z,97.72
2022-11-05T18:11:53.934Z,97.72
2022-11-05T18:13:55.031Z,97.94
2022-11-05T18:15:56.863Z,97.9
2022-11-05T18:17:57.934Z,97.95
2022-11-05T18:19:59.584Z,97.86
2022-11-05T18:22:01.216Z,97.82
2022-11-05T18:24:02.952Z,97.81
2022-11-05T18:26:04.217Z,97.97
2022-11-05T18:28:05.759Z,98
2022-11-05T18:30:06.966Z,98.08
2022-11-05T18:32:08.707Z,98.09
2022-11-05T18:36:11.497Z,98.11
2022-11-05T18:38:13.207Z,98.08
2022-11-05T18:40:14.165Z,98.24
2022-11-05T18:42:15.301Z,98.23
2022-11-05T18:46:36.334Z,98.18
2022-11-05T18:48:19.628Z,98.13
2022-11-05T18:50:21.454Z,98.09
2022-11-05T18:52:23.264Z,98.06
2022-11-05T18:54:24.520Z,98.03
2022-11-05T18:56:25.688Z,98.21
2022-11-05T18:58:26.732Z,98.17
2022-11-05T19:00:28.139Z,98.23
2022-11-05T19:02:29.586Z,98.18
2022-11-05T19:04:30.998Z,98.25
2022-11-05T19:06:32.232Z,98.25
2022-11-05T19:08:33.680Z,98.26
2022-11-05T19:10:34.981Z,98.37
2022-11-05T19:12:36.640Z,98.34
2022-11-05T19:14:37.860Z,98.44
2022-11-05T19:16:39.320Z,98.52
2022-11-05T19:18:40.635Z,98.53
2022-11-05T19:20:41.970Z,98.63
2022-11-05T19:22:43.584Z,98.49
2022-11-05T19:24:45.203Z,98.52
2022-11-05T19:28:48.415Z,98.59
2022-11-05T19:30:49.697Z,98.65
2022-11-05T19:32:50.905Z,98.63
2022-11-05T19:34:52.156Z,98.67
2022-11-05T19:36:53.270Z,98.55
2022-11-05T19:38:55.200Z,98.6
2022-11-05T19:40:56.229Z,98.64
2022-11-05T19:42:57.715Z,98.61
2022-11-05T19:45:11.489Z,98.64
2022-11-05T19:47:00.367Z,98.68
2022-11-05T19:49:02.044Z,98.71
2022-11-05T19:51:03.951Z,98.71
2022-11-05T19:53:05.008Z,98.71
2022-11-05T19:55:11.025Z,98.68
2022-11-05T19:57:08.464Z,98.65
2022-11-05T20:01:11.262Z,98.6
2022-11-05T20:03:12.262Z,98.5
2022-11-05T20:05:14.078Z,98.49
2022-11-05T20:07:15.229Z,98.48
2022-11-05T20:11:18.270Z,98.56
2022-11-05T20:13:20.048Z,98.42
2022-11-05T20:15:21.158Z,98.63
2022-11-05T20:17:22.002Z,98.66
2022-11-05T20:19:23.237Z,98.62
2022-11-05T20:21:25.118Z,98.64
2022-11-05T20:23:26.962Z,98.64
2022-11-05T20:25:28.269Z,98.66
2022-11-05T20:27:30.244Z,98.72
2022-11-05T20:29:35.483Z,98.71
2022-11-05T20:31:32.658Z,98.69
2022-11-05T20:33:34.338Z,98.64
2022-11-05T20:35:35.387Z,98.62
2022-11-05T20:37:36.544Z,98.65
2022-11-05T20:39:38.531Z,98.63
2022-11-05T20:41:39.940Z,98.63
2022-11-05T20:43:41.774Z,98.61
2022-11-05T20:45:42.809Z,98.44
2022-11-05T20:47:44.324Z,98.4
2022-11-05T20:49:46.069Z,98.36
2022-11-05T20:53:49.084Z,98.38
2022-11-05T20:55:50.234Z,98.28
2022-11-05T20:57:51.594Z,98.33
2022-11-05T20:59:52.581Z,98.39
2022-11-05T21:01:54.568Z,98.38
2022-11-05T21:03:56.319Z,98.33
2022-11-05T21:05:57.519Z,98.17
2022-11-05T21:07:58.533Z,98.16
2022-11-05T21:10:00.340Z,98.13
2022-11-05T21:12:01.764Z,98.22
2022-11-05T21:14:03.265Z,98.14
2022-11-05T21:16:05.106Z,98.2
2022-11-05T21:18:06.902Z,98.26
2022-11-05T21:20:08.873Z,98.25
2022-11-05T21:22:10.247Z,98.19
2022-11-05T21:24:11.837Z,98.31
2022-11-05T21:26:13.066Z,98.27
2022-11-05T21:28:15.246Z,98.31
2022-11-05T21:30:16.374Z,98.24
2022-11-05T21:32:18.026Z,98.23
2022-11-05T21:34:19.573Z,98.31
2022-11-05T21:36:21.505Z,98.1
2022-11-05T21:38:23.281Z,98.17
2022-11-05T21:42:26.993Z,98.21
2022-11-05T21:44:28.661Z,98.22
2022-11-05T21:46:29.740Z,98.17
2022-11-05T21:48:31.287Z,98.15
2022-11-05T21:52:33.649Z,98.18
2022-11-05T21:54:35.144Z,98.05
2022-11-05T21:56:36.474Z,98.09
2022-11-05T21:58:37.616Z,98.15
2022-11-05T22:00:38.942Z,98.16
2022-11-05T22:02:40.699Z,98.15
2022-11-05T22:04:42.504Z,98.15
2022-11-05T22:06:44.141Z,98.1
2022-11-05T22:08:46.052Z,98.09
2022-11-05T22:10:47.604Z,98.08
2022-11-05T22:12:48.983Z,98.11
2022-11-05T22:14:50.301Z,98.11
2022-11-05T22:16:51.666Z,98.11
2022-11-05T22:17:35.585Z,98.13
2022-11-05T22:19:36.631Z,98.17
2022-11-05T22:21:38.334Z,98.23
2022-11-05T22:23:40.007Z,98.4
2022-11-05T22:25:41.327Z,98.43
2022-11-05T22:29:43.827Z,98.53
2022-11-05T22:31:45.687Z,98.53
2022-11-05T22:33:47.670Z,98.59
2022-11-05T22:35:49.654Z,98.83
2022-11-05T22:37:51.019Z,98.88
2022-11-05T22:39:52.801Z,98.83
2022-11-05T22:41:54.729Z,98.75
2022-11-05T22:43:56.356Z,98.82
2022-11-05T22:45:58.107Z,98.64
2022-11-05T22:48:02.584Z,98.69
2022-11-05T22:50:01.050Z,98.43
2022-11-05T22:52:02.408Z,98.3
2022-11-05T22:54:03.867Z,98.27
2022-11-05T22:56:05.781Z,98.21
2022-11-05T22:58:06.968Z,98.13
2022-11-05T23:00:08.703Z,97.74
2022-11-05T23:02:10.501Z,98.03
2022-11-05T23:04:11.532Z,98.12
2022-11-05T23:06:12.855Z,98.48
2022-11-05T23:08:15.167Z,98.68
2022-11-05T23:12:18.460Z,98.71
2022-11-05T23:14:20.156Z,98.68
2022-11-05T23:16:22.077Z,98.69
2022-11-05T23:18:23.302Z,98.56
2022-11-05T23:20:24.509Z,98.5
2022-11-05T23:22:25.729Z,98.46
2022-11-05T23:24:26.837Z,98.42
2022-11-05T23:26:27.972Z,98.47
2022-11-05T23:28:29.367Z,98.54
2022-11-05T23:30:30.496Z,98.67
2022-11-05T23:32:31.785Z,98.68
2022-11-05T23:34:33.161Z,98.88
2022-11-05T23:36:34.423Z,98.81
2022-11-05T23:38:35.639Z,98.69
2022-11-05T23:40:37.286Z,98.62
2022-11-05T23:44:40.088Z,98.63
2022-11-05T23:46:41.456Z,98.65
2022-11-05T23:48:42.694Z,98.69
2022-11-05T23:50:44.153Z,98.82
2022-11-05T23:54:47.409Z,98.8
2022-11-05T23:56:48.628Z,98.64
2022-11-05T23:58:49.678Z,98.49
